Huvudsida
METAR-TAF:

METAR-TAF

Flygplatser :

Aten-Elefthérios Venizélos internationella flygplats

Aten, Grekland

latitud: 37-56N, longitud: 023-56E, höjd: 94 m

Aktuellt väderrapport

Denna rapport gjordes för 36 minuter sedan, klockan 09:20 UTC
Vind 19 kt från nord i byarna ända upp till 29 kt
Temperatur 30°C
Fuktighet 40%
Tryck 1011 hPa
Sikt 10 km eller mer
Inga moln under 1 500 m eller inga cumulonimbus

METAR: LGAV 190920Z 01019G29KT CAVOK 30/15 Q1011 NOSIG

Tid: 12:56 (09:56 UTC)

Väderprognos

Denna rapport gjordes för 4 timmar och 56 minuter sedan, klockan 05:00 UTC
Prognos gäller från 19 kl. 06 UTC till 20 kl. 06 UTC
Vind 14 kt från nord i byarna ända upp till 24 kt
Sikt 10 km eller mer
Få moln på en höjd av 3000 ft
Temporärt
från 19 kl. 09 UTC till 19 kl. 18 UTC
Vind 22 kt från nord i byarna ända upp till 32 kt

TAF: LGAV 190500Z 1906/2006 35014G24KT 9999 FEW030 TEMPO 1909/1918 01022G32KT

Aktuella väderrapporter och prognoser från 4000 flygplatser (METAR- och TAF-rapporter).

De tillgängliga stationerna syns som gula och röda prickar på kartan.

För musen över prickarna för att se namnen på stationerna.

Klicka sedan för att få väderrapporter och prognoser.

För att ändra kartan: Klicka på de gröna knapparna med ett svart kors på för att zooma in; den gröna knappen med ett streck på för att zooma ut; eller på de gröna pilarna för angränsande kartor.


METAR-TAF: